createdAt,value
2017-12-25T00:02:16.018Z,101230.40
2017-12-25T00:04:45.074Z,101238.18
2017-12-25T00:07:13.376Z,101226.87
2017-12-25T00:09:41.635Z,101230.64
2017-12-25T00:12:09.987Z,101219.53
2017-12-25T00:14:38.241Z,101227.24
2017-12-25T00:17:07.091Z,101231.83
2017-12-25T00:19:35.707Z,101229.66
2017-12-25T00:22:04.003Z,101231.83
2017-12-25T00:24:32.539Z,101232.79
2017-12-25T00:27:00.814Z,101238.98
2017-12-25T00:29:29.091Z,101231.02
2017-12-25T00:31:58.319Z,101232.90
2017-12-25T00:34:26.608Z,101238.16
2017-12-25T00:36:55.171Z,101237.58
2017-12-25T00:39:23.891Z,101241.25
2017-12-25T00:41:52.179Z,101243.91
2017-12-25T00:44:20.634Z,101250.13
2017-12-25T00:46:48.930Z,101241.73
2017-12-25T00:49:17.395Z,101244.11
2017-12-25T00:51:45.715Z,101251.25
2017-12-25T00:54:14.161Z,101257.81
2017-12-25T00:56:42.445Z,101254.61
2017-12-25T00:59:10.911Z,101252.23
2017-12-25T01:01:39.195Z,101250.43
2017-12-25T01:04:08.438Z,101251.29
2017-12-25T01:06:37.078Z,101257.06
2017-12-25T01:09:06.158Z,101261.45
2017-12-25T01:11:34.650Z,101258.86
2017-12-25T01:14:03.935Z,101257.64
2017-12-25T01:16:32.657Z,101255.70
2017-12-25T01:19:01.914Z,101262.39
2017-12-25T01:21:30.323Z,101262.84
2017-12-25T01:23:58.596Z,101257.06
2017-12-25T01:26:27.130Z,101260.83
2017-12-25T01:28:55.419Z,101260.30
2017-12-25T01:31:24.472Z,101259.66
2017-12-25T01:33:52.770Z,101267.59
2017-12-25T01:36:21.511Z,101264.77
2017-12-25T01:38:51.336Z,101264.03
2017-12-25T01:41:20.287Z,101258.22
2017-12-25T01:43:49.010Z,101262.23
2017-12-25T01:46:17.691Z,101266.74
2017-12-25T01:48:46.258Z,101259.77
2017-12-25T01:51:14.929Z,101265.02
2017-12-25T01:53:44.067Z,101265.11
2017-12-25T01:56:12.603Z,101264.20
2017-12-25T01:58:41.906Z,101269.59
2017-12-25T02:01:12.063Z,101268.38
2017-12-25T02:03:41.746Z,101264.61
2017-12-25T02:06:18.964Z,101268.20
2017-12-25T02:08:47.258Z,101266.98
2017-12-25T02:11:15.555Z,101263.83
2017-12-25T02:13:43.963Z,101271.57
2017-12-25T02:16:13.075Z,101268.78
2017-12-25T02:18:42.385Z,101269.23
2017-12-25T02:21:11.415Z,101266.34
2017-12-25T02:23:39.934Z,101265.45
2017-12-25T02:26:09.184Z,101262.02
2017-12-25T02:28:38.095Z,101262.63
2017-12-25T02:31:07.964Z,101260.30
2017-12-25T02:33:36.327Z,101259.89
2017-12-25T02:36:04.912Z,101254.55
2017-12-25T02:38:33.195Z,101257.75
2017-12-25T02:41:01.482Z,101262.09
2017-12-25T02:43:30.418Z,101259.61
2017-12-25T02:45:58.871Z,101264.23
2017-12-25T02:48:27.144Z,101267.27
2017-12-25T02:50:55.467Z,101265.13
2017-12-25T02:53:23.991Z,101259.31
2017-12-25T02:55:52.281Z,101265.22
2017-12-25T02:58:20.598Z,101275.86
2017-12-25T03:00:48.909Z,101257.58
2017-12-25T03:03:17.203Z,101252.92
2017-12-25T03:05:45.582Z,101251.77
2017-12-25T03:08:13.951Z,101265.70
2017-12-25T03:10:42.243Z,101259.89
2017-12-25T03:13:10.542Z,101264.72
2017-12-25T03:15:38.831Z,101256.02
2017-12-25T03:18:08.779Z,101265.36
2017-12-25T03:20:40.508Z,101269.78
2017-12-25T03:23:08.804Z,101259.95
2017-12-25T03:25:37.086Z,101261.83
2017-12-25T03:28:05.346Z,101267.22
2017-12-25T03:30:34.349Z,101259.55
2017-12-25T03:33:02.719Z,101260.31
2017-12-25T03:35:31.299Z,101258.62
2017-12-25T03:37:59.903Z,101258.56
2017-12-25T03:40:28.817Z,101260.55
2017-12-25T03:42:57.733Z,101261.29
2017-12-25T03:45:26.613Z,101263.53
2017-12-25T03:47:56.396Z,101267.06
2017-12-25T03:50:25.452Z,101257.13
2017-12-25T03:52:57.985Z,101264.11
2017-12-25T03:55:26.775Z,101272.09
2017-12-25T03:57:56.357Z,101260.67
2017-12-25T04:00:25.311Z,101273.96
2017-12-25T04:02:53.619Z,101269.38
2017-12-25T04:05:21.992Z,101275.36
2017-12-25T04:07:50.287Z,101263.63
2017-12-25T04:10:18.671Z,101268.39
2017-12-25T04:12:46.973Z,101271.35
2017-12-25T04:15:15.304Z,101255.60
2017-12-25T04:17:43.696Z,101260.77
2017-12-25T04:20:12.034Z,101252.00
2017-12-25T04:22:40.443Z,101268.22
2017-12-25T04:25:09.044Z,101265.27
2017-12-25T04:27:37.334Z,101265.95
2017-12-25T04:30:05.674Z,101266.31
2017-12-25T04:32:36.027Z,101268.28
2017-12-25T04:35:04.605Z,101270.30
2017-12-25T04:37:33.047Z,101270.12
2017-12-25T04:40:01.339Z,101269.38
2017-12-25T04:42:29.715Z,101273.28
2017-12-25T04:44:58.244Z,101264.69
2017-12-25T04:47:26.927Z,101271.66
2017-12-25T04:49:55.243Z,101263.97
2017-12-25T04:52:23.527Z,101261.14
2017-12-25T04:54:51.792Z,101259.17
2017-12-25T04:57:20.131Z,101260.49
2017-12-25T04:59:48.488Z,101255.09
2017-12-25T05:02:16.792Z,101254.84
2017-12-25T05:04:45.134Z,101251.66
2017-12-25T05:07:13.719Z,101251.83
2017-12-25T05:09:43.298Z,101253.75
2017-12-25T05:12:12.574Z,101249.61
2017-12-25T05:14:41.211Z,101254.16
2017-12-25T05:17:09.623Z,101250.16
2017-12-25T05:19:38.035Z,101238.12
2017-12-25T05:22:06.571Z,101243.77
2017-12-25T05:24:34.883Z,101246.63
2017-12-25T05:27:03.248Z,101250.66
2017-12-25T05:29:31.571Z,101245.45
2017-12-25T05:31:59.880Z,101249.56
2017-12-25T05:34:28.186Z,101242.30
2017-12-25T05:36:56.479Z,101240.50
2017-12-25T05:39:24.776Z,101238.83
2017-12-25T05:41:53.232Z,101240.22
2017-12-25T05:44:21.898Z,101246.95
2017-12-25T05:46:51.474Z,101240.15
2017-12-25T05:49:19.998Z,101238.83
2017-12-25T05:51:48.324Z,101237.94
2017-12-25T05:54:16.606Z,101249.33
2017-12-25T05:56:45.005Z,101247.70
2017-12-25T05:59:13.334Z,101243.52
2017-12-25T06:01:41.801Z,101253.23
2017-12-25T06:04:10.070Z,101253.81
2017-12-25T06:06:38.391Z,101258.39
2017-12-25T06:09:06.859Z,101259.25
2017-12-25T06:11:35.143Z,101259.78
2017-12-25T06:14:03.836Z,101254.63
2017-12-25T06:16:32.794Z,101253.06
2017-12-25T06:19:02.300Z,101247.70
2017-12-25T06:21:30.683Z,101252.69
2017-12-25T06:23:59.294Z,101252.82
2017-12-25T06:26:27.683Z,101249.05
2017-12-25T06:28:55.986Z,101247.89
2017-12-25T06:31:24.735Z,101244.88
2017-12-25T06:33:53.051Z,101252.69
2017-12-25T06:36:21.388Z,101254.66
2017-12-25T06:38:49.895Z,101243.30
2017-12-25T06:41:18.257Z,101242.08
2017-12-25T06:43:46.728Z,101248.92
2017-12-25T06:46:15.025Z,101243.99
2017-12-25T06:48:43.473Z,101237.71
2017-12-25T06:51:11.758Z,101242.88
2017-12-25T06:53:40.028Z,101231.52
2017-12-25T06:56:08.315Z,101234.00
2017-12-25T06:58:36.911Z,101236.45
2017-12-25T07:01:06.487Z,101235.81
2017-12-25T07:03:35.957Z,101234.17
2017-12-25T07:06:05.090Z,101234.41
2017-12-25T07:08:33.632Z,101239.00
2017-12-25T07:11:01.939Z,101230.64
2017-12-25T07:13:30.228Z,101237.61
2017-12-25T07:15:58.601Z,101237.13
2017-12-25T07:18:27.077Z,101235.98
2017-12-25T07:20:55.492Z,101233.30
2017-12-25T07:23:24.685Z,101238.88
2017-12-25T07:25:52.990Z,101245.27
2017-12-25T07:28:21.279Z,101250.02
2017-12-25T07:30:49.604Z,101241.90
2017-12-25T07:33:17.903Z,101231.97
2017-12-25T07:35:46.228Z,101237.20
2017-12-25T07:38:14.521Z,101237.62
2017-12-25T07:40:42.840Z,101232.28
2017-12-25T07:43:12.021Z,101234.70
2017-12-25T07:45:40.389Z,101230.52
2017-12-25T07:48:08.701Z,101226.16
2017-12-25T07:50:37.279Z,101228.71
2017-12-25T07:53:05.584Z,101229.13
2017-12-25T07:55:34.020Z,101235.11
2017-12-25T07:58:02.638Z,101234.36
2017-12-25T08:00:31.110Z,101239.80
2017-12-25T08:02:59.463Z,101236.57
2017-12-25T08:05:27.755Z,101236.98
2017-12-25T08:07:56.086Z,101244.77
2017-12-25T08:10:24.491Z,101233.82
2017-12-25T08:12:52.840Z,101239.19
2017-12-25T08:15:21.642Z,101231.67
2017-12-25T08:17:49.952Z,101246.91
2017-12-25T08:20:18.394Z,101234.94
2017-12-25T08:22:46.684Z,101238.95
2017-12-25T08:25:15.201Z,101243.30
2017-12-25T08:27:43.491Z,101243.23
2017-12-25T08:30:11.811Z,101235.05
2017-12-25T08:32:40.132Z,101235.75
2017-12-25T08:35:08.476Z,101239.57
2017-12-25T08:37:37.256Z,101241.03
2017-12-25T08:40:05.591Z,101242.32
2017-12-25T08:42:33.919Z,101247.12
2017-12-25T08:45:02.321Z,101257.59
2017-12-25T08:47:30.647Z,101253.00
2017-12-25T08:49:58.915Z,101245.34
2017-12-25T08:52:27.324Z,101249.70
2017-12-25T08:54:55.599Z,101252.18
2017-12-25T08:57:23.938Z,101251.02
2017-12-25T08:59:52.244Z,101254.22
2017-12-25T09:02:20.586Z,101256.19
2017-12-25T09:04:48.877Z,101254.97
2017-12-25T09:07:17.195Z,101255.92
2017-12-25T09:09:45.509Z,101253.00
2017-12-25T09:12:13.900Z,101254.70
2017-12-25T09:14:42.283Z,101245.52
2017-12-25T09:17:10.648Z,101257.99
2017-12-25T09:19:38.939Z,101248.98
2017-12-25T09:22:07.268Z,101257.18
2017-12-25T09:24:35.603Z,101255.78
2017-12-25T09:27:03.937Z,101258.98
2017-12-25T09:29:32.267Z,101259.22
2017-12-25T09:32:00.806Z,101254.97
2017-12-25T09:34:29.144Z,101252.66
2017-12-25T09:36:57.494Z,101254.49
2017-12-25T09:39:25.778Z,101252.25
2017-12-25T09:41:54.282Z,101248.30
2017-12-25T09:44:23.008Z,101246.84
2017-12-25T09:46:51.335Z,101243.14
2017-12-25T09:49:19.666Z,101239.63
2017-12-25T09:51:48.107Z,101245.86
2017-12-25T09:54:16.432Z,101245.45
2017-12-25T09:56:44.803Z,101238.23
2017-12-25T09:59:13.103Z,101239.23
2017-12-25T10:01:41.483Z,101238.88
2017-12-25T10:04:09.786Z,101237.25
2017-12-25T10:06:38.166Z,101234.23
2017-12-25T10:09:06.638Z,101231.20
2017-12-25T10:11:35.151Z,101233.98
2017-12-25T10:14:03.443Z,101229.53
2017-12-25T10:16:31.771Z,101231.51
2017-12-25T10:19:00.147Z,101223.37
2017-12-25T10:21:28.473Z,101228.55
2017-12-25T10:23:56.764Z,101221.52
2017-12-25T10:26:25.213Z,101220.63
2017-12-25T10:28:53.591Z,101224.06
2017-12-25T10:31:21.990Z,101221.92
2017-12-25T10:33:50.284Z,101220.42
2017-12-25T10:36:18.671Z,101218.62
2017-12-25T10:38:47.075Z,101218.83
2017-12-25T10:41:15.372Z,101214.64
2017-12-25T10:43:43.663Z,101217.33
2017-12-25T10:46:12.035Z,101221.10
2017-12-25T10:48:40.459Z,101214.95
2017-12-25T10:51:08.734Z,101211.27
2017-12-25T10:53:37.015Z,101218.41
2017-12-25T10:56:05.316Z,101209.41
2017-12-25T10:58:33.803Z,101211.61
2017-12-25T11:01:02.117Z,101204.36
2017-12-25T11:03:30.467Z,101199.06
2017-12-25T11:05:58.784Z,101202.33
2017-12-25T11:08:27.067Z,101196.98
2017-12-25T11:10:55.390Z,101192.39
2017-12-25T11:13:23.711Z,101193.79
2017-12-25T11:15:52.659Z,101187.56
2017-12-25T11:18:20.978Z,101184.61
2017-12-25T11:20:49.259Z,101185.25
2017-12-25T11:23:17.579Z,101179.30
2017-12-25T11:25:46.083Z,101173.14
2017-12-25T11:28:15.047Z,101172.33
2017-12-25T11:30:43.367Z,101168.38
2017-12-25T11:33:11.799Z,101160.15
2017-12-25T11:35:40.090Z,101164.95
2017-12-25T11:38:08.439Z,101160.49
2017-12-25T11:40:36.747Z,101160.90
2017-12-25T11:43:05.015Z,101163.93
2017-12-25T11:45:33.512Z,101151.38
2017-12-25T11:48:01.791Z,101150.83
2017-12-25T11:50:30.343Z,101146.03
2017-12-25T11:52:58.745Z,101134.27
2017-12-25T11:55:27.238Z,101128.11
2017-12-25T11:57:55.543Z,101129.58
2017-12-25T12:00:23.884Z,101129.34
2017-12-25T12:02:52.215Z,101130.04
2017-12-25T12:05:20.799Z,101135.30
2017-12-25T12:07:49.111Z,101131.13
2017-12-25T12:10:17.419Z,101132.34
2017-12-25T12:12:45.766Z,101134.72
2017-12-25T12:15:14.076Z,101124.56
2017-12-25T12:17:42.391Z,101122.44
2017-12-25T12:20:10.702Z,101126.02
2017-12-25T12:22:39.067Z,101127.81
2017-12-25T12:25:07.468Z,101117.93
2017-12-25T12:27:35.732Z,101120.95
2017-12-25T12:30:04.126Z,101118.16
2017-12-25T12:32:32.575Z,101115.55
2017-12-25T12:35:00.924Z,101111.42
2017-12-25T12:37:29.362Z,101107.35
2017-12-25T12:39:57.639Z,101109.39
2017-12-25T12:42:26.115Z,101111.33
2017-12-25T12:44:54.379Z,101108.59
2017-12-25T12:47:22.675Z,101110.95
2017-12-25T12:49:51.139Z,101106.36
2017-12-25T12:52:19.435Z,101103.17
2017-12-25T12:54:48.013Z,101106.53
2017-12-25T12:57:16.596Z,101098.37
2017-12-25T12:59:44.859Z,101095.45
2017-12-25T13:02:13.180Z,101094.19
2017-12-25T13:04:41.643Z,101093.81
2017-12-25T13:07:09.986Z,101091.43
2017-12-25T13:09:38.380Z,101092.22
2017-12-25T13:12:06.875Z,101086.09
2017-12-25T13:14:35.224Z,101076.06
2017-12-25T13:17:03.534Z,101079.87
2017-12-25T13:19:32.052Z,101079.46
2017-12-25T13:22:00.390Z,101072.08
2017-12-25T13:24:28.688Z,101072.95
2017-12-25T13:26:57.136Z,101070.58
2017-12-25T13:29:25.403Z,101078.13
2017-12-25T13:31:53.807Z,101074.41
2017-12-25T13:34:22.155Z,101067.20
2017-12-25T13:36:50.698Z,101068.92
2017-12-25T13:39:18.983Z,101065.03
2017-12-25T13:41:47.275Z,101061.05
2017-12-25T13:44:15.540Z,101058.81
2017-12-25T13:46:43.835Z,101054.08
2017-12-25T13:49:12.110Z,101060.06
2017-12-25T13:51:40.459Z,101058.53
2017-12-25T13:54:08.746Z,101059.45
2017-12-25T13:56:37.235Z,101048.23
2017-12-25T13:59:05.505Z,101045.80
2017-12-25T14:01:33.807Z,101052.59
2017-12-25T14:04:02.096Z,101056.95
2017-12-25T14:06:30.563Z,101044.98
2017-12-25T14:08:59.098Z,101046.31
2017-12-25T14:11:27.378Z,101046.52
2017-12-25T14:13:55.795Z,101042.95
2017-12-25T14:16:24.100Z,101037.37
2017-12-25T14:18:52.555Z,101036.29
2017-12-25T14:21:20.826Z,101040.47
2017-12-25T14:23:49.123Z,101037.75
2017-12-25T14:26:17.603Z,101032.98
2017-12-25T14:28:46.075Z,101033.39
2017-12-25T14:31:14.669Z,101037.57
2017-12-25T14:33:42.919Z,101036.17
2017-12-25T14:36:11.322Z,101034.14
2017-12-25T14:38:39.777Z,101028.01
2017-12-25T14:41:08.055Z,101030.89
2017-12-25T14:43:36.515Z,101027.02
2017-12-25T14:46:04.822Z,101022.00
2017-12-25T14:48:33.274Z,101023.16
2017-12-25T14:51:01.812Z,101021.19
2017-12-25T14:53:30.259Z,101014.79
2017-12-25T14:55:58.555Z,101014.13
2017-12-25T14:58:27.007Z,101012.52
2017-12-25T15:00:55.282Z,101011.36
2017-12-25T15:03:23.589Z,101009.63
2017-12-25T15:05:51.895Z,101006.83
2017-12-25T15:08:20.183Z,100999.28
2017-12-25T15:10:48.611Z,101004.30
2017-12-25T15:13:16.902Z,100997.42
2017-12-25T15:15:45.379Z,100997.24
2017-12-25T15:18:13.779Z,100992.71
2017-12-25T15:20:42.067Z,100987.72
2017-12-25T15:23:10.368Z,100985.27
2017-12-25T15:25:38.823Z,100982.31
2017-12-25T15:28:07.086Z,100980.10
2017-12-25T15:30:35.372Z,100977.72
2017-12-25T15:33:03.626Z,100977.14
2017-12-25T15:35:31.967Z,100978.59
2017-12-25T15:38:00.444Z,100973.48
2017-12-25T15:40:28.792Z,100970.42
2017-12-25T15:42:57.894Z,100969.59
2017-12-25T15:45:26.327Z,100965.81
2017-12-25T15:47:54.791Z,100967.78
2017-12-25T15:50:23.103Z,100968.72
2017-12-25T15:52:51.552Z,100963.14
2017-12-25T15:55:19.976Z,100959.19
2017-12-25T15:57:48.283Z,100964.12
2017-12-25T16:00:16.583Z,100957.21
2017-12-25T16:02:44.840Z,100955.81
2017-12-25T16:05:13.214Z,100958.61
2017-12-25T16:07:41.591Z,100956.39
2017-12-25T16:10:10.041Z,100950.47
2017-12-25T16:12:38.375Z,100947.45
2017-12-25T16:15:06.862Z,100944.77
2017-12-25T16:17:35.307Z,100942.13
2017-12-25T16:20:03.635Z,100946.08
2017-12-25T16:22:31.979Z,100947.07
2017-12-25T16:25:00.271Z,100941.73
2017-12-25T16:27:28.814Z,100939.34
2017-12-25T16:29:57.131Z,100933.53
2017-12-25T16:32:25.496Z,100932.14
2017-12-25T16:34:53.775Z,100928.11
2017-12-25T16:37:22.063Z,100925.34
2017-12-25T16:39:50.314Z,100921.02
2017-12-25T16:42:18.629Z,100919.86
2017-12-25T16:44:46.971Z,100917.88
2017-12-25T16:47:15.246Z,100918.75
2017-12-25T16:49:43.498Z,100911.95
2017-12-25T16:52:11.816Z,100909.77
2017-12-25T16:54:40.355Z,100910.91
2017-12-25T16:57:08.677Z,100900.52
2017-12-25T16:59:36.983Z,100902.14
2017-12-25T17:02:05.272Z,100903.12
2017-12-25T17:04:33.600Z,100898.19
2017-12-25T17:07:02.097Z,100908.18
2017-12-25T17:09:30.389Z,100896.03
2017-12-25T17:11:58.719Z,100894.70
2017-12-25T17:14:27.031Z,100890.98
2017-12-25T17:16:55.343Z,100887.94
2017-12-25T17:19:23.595Z,100888.52
2017-12-25T17:21:51.896Z,100884.86
2017-12-25T17:24:20.195Z,100880.97
2017-12-25T17:26:48.535Z,100880.56
2017-12-25T17:29:16.843Z,100880.97
2017-12-25T17:31:45.147Z,100878.96
2017-12-25T17:34:13.769Z,100877.45
2017-12-25T17:36:42.235Z,100882.62
2017-12-25T17:39:10.691Z,100874.25
2017-12-25T17:41:38.983Z,100866.30
2017-12-25T17:44:07.455Z,100860.77
2017-12-25T17:46:35.731Z,100863.91
2017-12-25T17:49:04.015Z,100860.77
2017-12-25T17:51:32.503Z,100848.42
2017-12-25T17:54:00.958Z,100851.03
2017-12-25T17:56:29.260Z,100846.55
2017-12-25T17:58:57.719Z,100842.73
2017-12-25T18:01:26.157Z,100839.20
2017-12-25T18:03:54.416Z,100844.34
2017-12-25T18:06:22.726Z,100845.65
2017-12-25T18:08:50.992Z,100831.94
2017-12-25T18:11:19.279Z,100836.95
2017-12-25T18:13:47.779Z,100834.39
2017-12-25T18:16:16.275Z,100828.18
2017-12-25T18:18:44.575Z,100833.00
2017-12-25T18:21:12.907Z,100828.64
2017-12-25T18:23:41.179Z,100834.95
2017-12-25T18:26:09.474Z,100826.35
2017-12-25T18:28:37.780Z,100825.88
2017-12-25T18:31:06.244Z,100832.36
2017-12-25T18:33:34.519Z,100828.10
2017-12-25T18:36:02.844Z,100826.48
2017-12-25T18:38:31.127Z,100827.59
2017-12-25T18:40:59.431Z,100821.18
2017-12-25T18:43:27.711Z,100814.87
2017-12-25T18:45:56.023Z,100814.03
2017-12-25T18:48:24.342Z,100810.44
2017-12-25T18:50:52.679Z,100811.11
2017-12-25T18:53:20.947Z,100809.56
2017-12-25T18:55:49.320Z,100800.84
2017-12-25T18:58:17.642Z,100795.30
2017-12-25T19:00:45.939Z,100790.50
2017-12-25T19:03:14.323Z,100792.66
2017-12-25T19:05:42.626Z,100776.97
2017-12-25T19:08:11.066Z,100770.52
2017-12-25T19:10:39.709Z,100759.72
2017-12-25T19:13:08.051Z,100754.78
2017-12-25T19:15:36.347Z,100755.74
2017-12-25T19:18:04.623Z,100755.95
2017-12-25T19:20:32.902Z,100755.34
2017-12-25T19:23:01.360Z,100756.27
2017-12-25T19:25:29.697Z,100747.96
2017-12-25T19:27:58.007Z,100749.53
2017-12-25T19:30:26.343Z,100744.53
2017-12-25T19:32:54.666Z,100745.37
2017-12-25T19:35:22.950Z,100740.12
2017-12-25T19:37:51.215Z,100735.31
2017-12-25T19:40:19.502Z,100730.31
2017-12-25T19:42:47.835Z,100731.92
2017-12-25T19:45:16.250Z,100728.16
2017-12-25T19:47:44.654Z,100727.98
2017-12-25T19:50:12.955Z,100726.13
2017-12-25T19:52:41.284Z,100714.39
2017-12-25T19:55:09.631Z,100718.98
2017-12-25T19:57:37.926Z,100714.39
2017-12-25T20:00:06.512Z,100714.32
2017-12-25T20:02:34.798Z,100711.98
2017-12-25T20:05:03.078Z,100707.84
2017-12-25T20:07:31.419Z,100699.34
2017-12-25T20:09:59.695Z,100701.89
2017-12-25T20:12:28.046Z,100695.48
2017-12-25T20:14:56.522Z,100694.41
2017-12-25T20:17:24.835Z,100681.48
2017-12-25T20:19:53.144Z,100684.45
2017-12-25T20:22:21.960Z,100670.73
2017-12-25T20:24:50.310Z,100680.97
2017-12-25T20:27:18.631Z,100672.35
2017-12-25T20:29:46.900Z,100666.61
2017-12-25T20:32:15.375Z,100665.73
2017-12-25T20:34:43.684Z,100664.56
2017-12-25T20:37:12.708Z,100656.96
2017-12-25T20:39:41.179Z,100650.96
2017-12-25T20:42:09.515Z,100651.43
2017-12-25T20:44:37.835Z,100639.10
2017-12-25T20:47:06.196Z,100636.50
2017-12-25T20:49:34.740Z,100642.13
2017-12-25T20:52:03.212Z,100628.95
2017-12-25T20:54:31.507Z,100636.73
2017-12-25T20:56:59.811Z,100630.75
2017-12-25T20:59:28.132Z,100641.08
2017-12-25T21:01:56.431Z,100630.16
2017-12-25T21:04:24.730Z,100625.34
2017-12-25T21:06:53.415Z,100628.82
2017-12-25T21:09:22.024Z,100625.62
2017-12-25T21:11:50.320Z,100619.46
2017-12-25T21:14:18.582Z,100613.95
2017-12-25T21:16:47.040Z,100607.42
2017-12-25T21:19:15.319Z,100608.36
2017-12-25T21:21:44.390Z,100607.49
2017-12-25T21:24:12.723Z,100607.04
2017-12-25T21:26:41.131Z,100602.63
2017-12-25T21:29:09.550Z,100598.05
2017-12-25T21:31:37.830Z,100594.53
2017-12-25T21:34:06.089Z,100600.02
2017-12-25T21:36:34.380Z,100599.03
2017-12-25T21:39:02.691Z,100598.16
2017-12-25T21:41:31.035Z,100595.37
2017-12-25T21:43:59.302Z,100591.95
2017-12-25T21:46:27.595Z,100587.00
2017-12-25T21:48:56.048Z,100585.36
2017-12-25T21:51:24.856Z,100581.00
2017-12-25T21:53:53.535Z,100569.84
2017-12-25T21:56:21.904Z,100568.41
2017-12-25T21:58:50.179Z,100568.45
2017-12-25T22:01:18.988Z,100568.17
2017-12-25T22:03:47.274Z,100562.59
2017-12-25T22:06:15.587Z,100559.98
2017-12-25T22:08:43.867Z,100553.96
2017-12-25T22:11:12.165Z,100554.05
2017-12-25T22:13:40.513Z,100551.08
2017-12-25T22:16:08.860Z,100544.11
2017-12-25T22:18:37.150Z,100541.55
2017-12-25T22:21:05.436Z,100537.31
2017-12-25T22:23:33.730Z,100538.84
2017-12-25T22:26:02.252Z,100536.46
2017-12-25T22:28:30.653Z,100528.55
2017-12-25T22:30:58.979Z,100527.69
2017-12-25T22:33:27.431Z,100526.42
2017-12-25T22:35:55.763Z,100522.42
2017-12-25T22:38:24.182Z,100528.30
2017-12-25T22:40:52.487Z,100523.13
2017-12-25T22:43:20.765Z,100519.09
2017-12-25T22:45:49.127Z,100519.45
2017-12-25T22:48:17.425Z,100510.17
2017-12-25T22:50:45.896Z,100505.70
2017-12-25T22:53:14.332Z,100507.49
2017-12-25T22:55:42.672Z,100507.31
2017-12-25T22:58:11.048Z,100490.80
2017-12-25T23:00:40.738Z,100496.92
2017-12-25T23:03:09.062Z,100492.52
2017-12-25T23:05:37.380Z,100483.55
2017-12-25T23:08:05.822Z,100483.38
2017-12-25T23:10:34.111Z,100477.97
2017-12-25T23:13:02.495Z,100474.56
2017-12-25T23:15:30.819Z,100477.76
2017-12-25T23:17:59.111Z,100472.94
2017-12-25T23:20:27.444Z,100468.00
2017-12-25T23:22:55.887Z,100468.16
2017-12-25T23:25:24.171Z,100462.36
2017-12-25T23:27:52.483Z,100463.63
2017-12-25T23:30:20.788Z,100463.17
2017-12-25T23:32:49.143Z,100460.16
2017-12-25T23:35:17.487Z,100459.58
2017-12-25T23:37:45.738Z,100458.22
2017-12-25T23:40:14.262Z,100447.03
2017-12-25T23:42:42.595Z,100458.41
2017-12-25T23:45:11.128Z,100452.78
2017-12-25T23:47:39.430Z,100440.81
2017-12-25T23:50:07.903Z,100435.05
2017-12-25T23:52:36.175Z,100435.01
2017-12-25T23:55:04.471Z,100434.02
2017-12-25T23:57:32.822Z,100420.31
